sensor_id;sensor_type;location;lat;lon;timestamp;P1;durP1;ratioP1;P2;durP2;ratioP2
80163;SDS011;70071;55.130;61.268;2023-10-13T00:01:08;2.40;;;1.10;;
80163;SDS011;70071;55.130;61.268;2023-10-13T00:03:37;1.77;;;0.93;;
80163;SDS011;70071;55.130;61.268;2023-10-13T00:06:05;1.73;;;0.57;;
80163;SDS011;70071;55.130;61.268;2023-10-13T00:08:31;1.40;;;0.60;;
80163;SDS011;70071;55.130;61.268;2023-10-13T00:10:57;3.03;;;0.90;;
80163;SDS011;70071;55.130;61.268;2023-10-13T00:13:26;2.20;;;0.90;;
80163;SDS011;70071;55.130;61.268;2023-10-13T00:15:53;2.20;;;0.82;;
80163;SDS011;70071;55.130;61.268;2023-10-13T00:18:26;1.08;;;0.68;;
80163;SDS011;70071;55.130;61.268;2023-10-13T00:20:58;1.85;;;0.80;;
80163;SDS011;70071;55.130;61.268;2023-10-13T00:23:41;1.52;;;0.85;;
80163;SDS011;70071;55.130;61.268;2023-10-13T00:26:25;2.10;;;1.13;;
80163;SDS011;70071;55.130;61.268;2023-10-13T00:28:56;2.72;;;0.73;;
80163;SDS011;70071;55.130;61.268;2023-10-13T00:31:32;0.70;;;0.50;;
80163;SDS011;70071;55.130;61.268;2023-10-13T00:34:02;2.08;;;0.80;;
80163;SDS011;70071;55.130;61.268;2023-10-13T00:36:44;1.98;;;0.52;;
80163;SDS011;70071;55.130;61.268;2023-10-13T00:39:34;2.72;;;1.00;;
80163;SDS011;70071;55.130;61.268;2023-10-13T00:42:02;1.88;;;0.88;;
80163;SDS011;70071;55.130;61.268;2023-10-13T00:44:33;2.25;;;0.95;;
80163;SDS011;70071;55.130;61.268;2023-10-13T00:47:09;4.70;;;1.00;;
80163;SDS011;70071;55.130;61.268;2023-10-13T00:49:48;2.17;;;0.80;;
80163;SDS011;70071;55.130;61.268;2023-10-13T00:52:14;1.95;;;0.80;;
80163;SDS011;70071;55.130;61.268;2023-10-13T00:54:44;2.35;;;1.00;;
80163;SDS011;70071;55.130;61.268;2023-10-13T00:57:14;2.83;;;1.13;;
80163;SDS011;70071;55.130;61.268;2023-10-13T00:59:54;2.60;;;0.70;;
80163;SDS011;70071;55.130;61.268;2023-10-13T01:02:22;2.17;;;1.20;;
80163;SDS011;70071;55.130;61.268;2023-10-13T01:05:04;1.80;;;0.90;;
80163;SDS011;70071;55.130;61.268;2023-10-13T01:07:31;2.30;;;1.13;;
80163;SDS011;70071;55.130;61.268;2023-10-13T01:09:57;2.42;;;1.00;;
80163;SDS011;70071;55.130;61.268;2023-10-13T01:12:22;1.70;;;0.85;;
80163;SDS011;70071;55.130;61.268;2023-10-13T01:14:51;2.53;;;1.00;;
80163;SDS011;70071;55.130;61.268;2023-10-13T01:17:17;1.80;;;0.90;;
80163;SDS011;70071;55.130;61.268;2023-10-13T01:19:43;1.52;;;0.77;;
80163;SDS011;70071;55.130;61.268;2023-10-13T01:22:11;4.43;;;0.82;;
80163;SDS011;70071;55.130;61.268;2023-10-13T01:24:38;2.75;;;1.00;;
80163;SDS011;70071;55.130;61.268;2023-10-13T01:27:05;2.05;;;0.55;;
80163;SDS011;70071;55.130;61.268;2023-10-13T01:29:48;1.63;;;0.70;;
80163;SDS011;70071;55.130;61.268;2023-10-13T01:32:19;2.15;;;0.85;;
80163;SDS011;70071;55.130;61.268;2023-10-13T01:34:50;1.10;;;0.50;;
80163;SDS011;70071;55.130;61.268;2023-10-13T01:37:21;2.35;;;1.00;;
80163;SDS011;70071;55.130;61.268;2023-10-13T01:39:48;1.73;;;0.77;;
80163;SDS011;70071;55.130;61.268;2023-10-13T01:42:15;1.98;;;0.65;;
80163;SDS011;70071;55.130;61.268;2023-10-13T01:44:47;2.60;;;0.90;;
80163;SDS011;70071;55.130;61.268;2023-10-13T01:47:14;2.92;;;0.90;;
80163;SDS011;70071;55.130;61.268;2023-10-13T01:49:41;1.60;;;0.60;;
80163;SDS011;70071;55.130;61.268;2023-10-13T01:52:09;2.22;;;0.95;;
80163;SDS011;70071;55.130;61.268;2023-10-13T01:54:43;2.65;;;0.88;;
80163;SDS011;70071;55.130;61.268;2023-10-13T01:57:11;1.52;;;0.80;;
80163;SDS011;70071;55.130;61.268;2023-10-13T01:59:46;1.83;;;0.90;;
80163;SDS011;70071;55.130;61.268;2023-10-13T02:02:13;2.63;;;1.08;;
80163;SDS011;70071;55.130;61.268;2023-10-13T02:04:40;1.83;;;0.95;;
80163;SDS011;70071;55.130;61.268;2023-10-13T02:07:31;1.63;;;0.82;;
80163;SDS011;70071;55.130;61.268;2023-10-13T02:10:00;2.70;;;1.10;;
80163;SDS011;70071;55.130;61.268;2023-10-13T02:12:30;1.08;;;0.47;;
80163;SDS011;70071;55.130;61.268;2023-10-13T02:15:03;2.55;;;1.00;;
80163;SDS011;70071;55.130;61.268;2023-10-13T02:17:32;2.30;;;1.02;;
80163;SDS011;70071;55.130;61.268;2023-10-13T02:20:08;2.35;;;1.15;;
80163;SDS011;70071;55.130;61.268;2023-10-13T02:22:39;2.05;;;0.80;;
80163;SDS011;70071;55.130;61.268;2023-10-13T02:25:17;1.30;;;0.73;;
80163;SDS011;70071;55.130;61.268;2023-10-13T02:28:03;2.85;;;1.20;;
80163;SDS011;70071;55.130;61.268;2023-10-13T02:30:39;0.68;;;0.40;;
80163;SDS011;70071;55.130;61.268;2023-10-13T02:33:14;2.67;;;0.90;;
80163;SDS011;70071;55.130;61.268;2023-10-13T02:35:46;3.47;;;0.80;;
80163;SDS011;70071;55.130;61.268;2023-10-13T02:38:21;2.00;;;0.85;;
80163;SDS011;70071;55.130;61.268;2023-10-13T02:40:58;2.65;;;1.55;;
80163;SDS011;70071;55.130;61.268;2023-10-13T02:43:37;3.17;;;1.20;;
80163;SDS011;70071;55.130;61.268;2023-10-13T02:46:03;2.08;;;0.88;;
80163;SDS011;70071;55.130;61.268;2023-10-13T02:48:30;2.22;;;0.80;;
80163;SDS011;70071;55.130;61.268;2023-10-13T02:51:05;1.45;;;0.65;;
80163;SDS011;70071;55.130;61.268;2023-10-13T02:53:41;1.40;;;0.80;;
80163;SDS011;70071;55.130;61.268;2023-10-13T02:56:12;3.55;;;0.98;;
80163;SDS011;70071;55.130;61.268;2023-10-13T02:58:42;2.85;;;0.90;;
80163;SDS011;70071;55.130;61.268;2023-10-13T03:01:11;1.65;;;0.77;;
80163;SDS011;70071;55.130;61.268;2023-10-13T03:03:44;2.60;;;1.02;;
80163;SDS011;70071;55.130;61.268;2023-10-13T03:06:15;2.97;;;1.00;;
80163;SDS011;70071;55.130;61.268;2023-10-13T03:08:42;2.20;;;0.65;;
80163;SDS011;70071;55.130;61.268;2023-10-13T03:11:09;1.75;;;0.60;;
80163;SDS011;70071;55.130;61.268;2023-10-13T03:13:36;1.83;;;0.80;;
80163;SDS011;70071;55.130;61.268;2023-10-13T03:16:12;3.88;;;1.02;;
80163;SDS011;70071;55.130;61.268;2023-10-13T03:18:44;1.75;;;0.73;;
80163;SDS011;70071;55.130;61.268;2023-10-13T03:21:25;2.72;;;0.68;;
80163;SDS011;70071;55.130;61.268;2023-10-13T03:24:03;1.77;;;0.65;;
80163;SDS011;70071;55.130;61.268;2023-10-13T03:26:32;3.78;;;0.73;;
80163;SDS011;70071;55.130;61.268;2023-10-13T03:29:02;3.63;;;1.33;;
80163;SDS011;70071;55.130;61.268;2023-10-13T03:31:32;1.45;;;0.60;;
80163;SDS011;70071;55.130;61.268;2023-10-13T03:34:03;4.40;;;0.73;;
80163;SDS011;70071;55.130;61.268;2023-10-13T03:36:31;2.08;;;0.75;;
80163;SDS011;70071;55.130;61.268;2023-10-13T03:44:28;1.83;;;0.60;;
80163;SDS011;70071;55.130;61.268;2023-10-13T03:46:56;1.30;;;0.65;;
80163;SDS011;70071;55.130;61.268;2023-10-13T03:49:26;2.00;;;0.80;;
80163;SDS011;70071;55.130;61.268;2023-10-13T03:51:56;1.70;;;0.63;;
80163;SDS011;70071;55.130;61.268;2023-10-13T03:54:23;2.35;;;0.77;;
80163;SDS011;70071;55.130;61.268;2023-10-13T03:56:49;2.95;;;0.88;;
80163;SDS011;70071;55.130;61.268;2023-10-13T03:59:21;1.95;;;0.90;;
80163;SDS011;70071;55.130;61.268;2023-10-13T04:01:50;2.40;;;0.98;;
80163;SDS011;70071;55.130;61.268;2023-10-13T04:04:28;1.88;;;0.77;;
80163;SDS011;70071;55.130;61.268;2023-10-13T04:07:13;1.30;;;0.63;;
80163;SDS011;70071;55.130;61.268;2023-10-13T04:10:01;1.25;;;0.70;;
80163;SDS011;70071;55.130;61.268;2023-10-13T04:12:55;2.75;;;0.63;;
80163;SDS011;70071;55.130;61.268;2023-10-13T04:15:39;1.75;;;0.80;;
80163;SDS011;70071;55.130;61.268;2023-10-13T04:18:27;2.20;;;0.90;;
80163;SDS011;70071;55.130;61.268;2023-10-13T04:21:17;2.20;;;0.82;;
80163;SDS011;70071;55.130;61.268;2023-10-13T04:24:01;2.00;;;0.90;;
80163;SDS011;70071;55.130;61.268;2023-10-13T04:26:45;2.47;;;0.90;;
80163;SDS011;70071;55.130;61.268;2023-10-13T04:29:31;2.13;;;0.90;;
80163;SDS011;70071;55.130;61.268;2023-10-13T04:32:16;2.58;;;1.02;;
80163;SDS011;70071;55.130;61.268;2023-10-13T04:34:56;2.85;;;1.10;;
80163;SDS011;70071;55.130;61.268;2023-10-13T04:37:42;2.00;;;0.90;;
80163;SDS011;70071;55.130;61.268;2023-10-13T04:40:40;2.30;;;0.88;;
80163;SDS011;70071;55.130;61.268;2023-10-13T04:43:24;2.25;;;1.13;;
80163;SDS011;70071;55.130;61.268;2023-10-13T04:46:09;1.40;;;0.80;;
80163;SDS011;70071;55.130;61.268;2023-10-13T04:51:25;2.47;;;1.10;;
80163;SDS011;70071;55.130;61.268;2023-10-13T04:54:15;4.47;;;0.90;;
80163;SDS011;70071;55.130;61.268;2023-10-13T04:56:51;2.72;;;0.95;;
80163;SDS011;70071;55.130;61.268;2023-10-13T04:59:37;2.97;;;0.73;;
80163;SDS011;70071;55.130;61.268;2023-10-13T05:02:23;2.35;;;0.90;;
80163;SDS011;70071;55.130;61.268;2023-10-13T05:05:08;2.33;;;0.90;;
80163;SDS011;70071;55.130;61.268;2023-10-13T05:07:47;2.80;;;1.10;;
80163;SDS011;70071;55.130;61.268;2023-10-13T05:10:35;1.83;;;0.95;;
80163;SDS011;70071;55.130;61.268;2023-10-13T05:13:22;2.17;;;0.88;;
80163;SDS011;70071;55.130;61.268;2023-10-13T05:16:06;2.08;;;0.90;;
80163;SDS011;70071;55.130;61.268;2023-10-13T05:18:51;3.72;;;1.20;;
80163;SDS011;70071;55.130;61.268;2023-10-13T05:21:39;3.17;;;1.40;;
80163;SDS011;70071;55.130;61.268;2023-10-13T05:24:24;1.83;;;1.10;;
80163;SDS011;70071;55.130;61.268;2023-10-13T05:27:16;1.92;;;1.10;;
80163;SDS011;70071;55.130;61.268;2023-10-13T05:36:18;2.63;;;1.23;;
80163;SDS011;70071;55.130;61.268;2023-10-13T06:21:33;4.13;;;1.20;;
80163;SDS011;70071;55.130;61.268;2023-10-13T06:24:36;2.33;;;1.13;;
80163;SDS011;70071;55.130;61.268;2023-10-13T06:27:24;4.68;;;1.30;;
80163;SDS011;70071;55.130;61.268;2023-10-13T06:30:08;3.10;;;1.20;;
80163;SDS011;70071;55.130;61.268;2023-10-13T06:32:35;3.13;;;1.27;;
80163;SDS011;70071;55.130;61.268;2023-10-13T06:35:05;3.03;;;1.17;;
80163;SDS011;70071;55.130;61.268;2023-10-13T06:37:50;3.67;;;1.25;;
80163;SDS011;70071;55.130;61.268;2023-10-13T06:40:16;2.35;;;0.90;;
80163;SDS011;70071;55.130;61.268;2023-10-13T06:42:57;3.63;;;1.25;;
80163;SDS011;70071;55.130;61.268;2023-10-13T06:45:42;2.05;;;1.10;;
80163;SDS011;70071;55.130;61.268;2023-10-13T06:48:33;4.80;;;0.80;;
80163;SDS011;70071;55.130;61.268;2023-10-13T06:51:01;1.77;;;0.82;;
80163;SDS011;70071;55.130;61.268;2023-10-13T06:53:40;3.08;;;1.13;;
80163;SDS011;70071;55.130;61.268;2023-10-13T06:56:19;2.70;;;1.45;;
80163;SDS011;70071;55.130;61.268;2023-10-13T06:58:50;3.22;;;1.30;;
80163;SDS011;70071;55.130;61.268;2023-10-13T07:01:25;6.40;;;1.38;;
80163;SDS011;70071;55.130;61.268;2023-10-13T07:04:00;3.33;;;1.10;;
80163;SDS011;70071;55.130;61.268;2023-10-13T07:06:40;2.55;;;1.10;;
80163;SDS011;70071;55.130;61.268;2023-10-13T07:09:43;2.70;;;1.35;;
80163;SDS011;70071;55.130;61.268;2023-10-13T07:12:24;4.72;;;0.85;;
80163;SDS011;70071;55.130;61.268;2023-10-13T07:18:11;2.60;;;0.90;;
80163;SDS011;70071;55.130;61.268;2023-10-13T07:20:42;3.30;;;1.48;;
80163;SDS011;70071;55.130;61.268;2023-10-13T07:23:25;3.53;;;1.52;;
80163;SDS011;70071;55.130;61.268;2023-10-13T07:26:14;2.65;;;1.33;;
80163;SDS011;70071;55.130;61.268;2023-10-13T07:29:57;2.97;;;1.08;;
80163;SDS011;70071;55.130;61.268;2023-10-13T07:32:45;4.10;;;1.20;;
80163;SDS011;70071;55.130;61.268;2023-10-13T07:35:16;2.70;;;1.48;;
80163;SDS011;70071;55.130;61.268;2023-10-13T07:40:20;3.28;;;1.27;;
80163;SDS011;70071;55.130;61.268;2023-10-13T07:43:05;2.10;;;1.30;;
80163;SDS011;70071;55.130;61.268;2023-10-13T07:45:38;3.75;;;1.40;;
80163;SDS011;70071;55.130;61.268;2023-10-13T07:48:06;3.22;;;1.92;;
80163;SDS011;70071;55.130;61.268;2023-10-13T07:50:47;3.22;;;1.55;;
80163;SDS011;70071;55.130;61.268;2023-10-13T07:53:23;4.38;;;1.48;;
80163;SDS011;70071;55.130;61.268;2023-10-13T07:58:26;2.90;;;1.45;;
80163;SDS011;70071;55.130;61.268;2023-10-13T08:00:52;3.40;;;1.58;;
80163;SDS011;70071;55.130;61.268;2023-10-13T08:03:24;2.47;;;1.63;;
80163;SDS011;70071;55.130;61.268;2023-10-13T08:06:08;3.90;;;1.17;;
80163;SDS011;70071;55.130;61.268;2023-10-13T08:08:40;2.63;;;1.23;;
80163;SDS011;70071;55.130;61.268;2023-10-13T08:13:52;3.22;;;1.52;;
80163;SDS011;70071;55.130;61.268;2023-10-13T08:16:26;4.93;;;1.27;;
80163;SDS011;70071;55.130;61.268;2023-10-13T08:19:16;4.07;;;1.42;;
80163;SDS011;70071;55.130;61.268;2023-10-13T08:21:44;2.63;;;1.45;;
80163;SDS011;70071;55.130;61.268;2023-10-13T08:24:19;2.10;;;1.15;;
80163;SDS011;70071;55.130;61.268;2023-10-13T08:27:04;6.00;;;2.10;;
80163;SDS011;70071;55.130;61.268;2023-10-13T08:29:59;2.90;;;1.70;;
80163;SDS011;70071;55.130;61.268;2023-10-13T08:32:44;3.78;;;1.70;;
80163;SDS011;70071;55.130;61.268;2023-10-13T08:35:23;5.32;;;1.58;;
80163;SDS011;70071;55.130;61.268;2023-10-13T08:38:02;4.63;;;1.60;;
80163;SDS011;70071;55.130;61.268;2023-10-13T08:40:43;2.38;;;1.48;;
80163;SDS011;70071;55.130;61.268;2023-10-13T08:43:28;3.58;;;1.48;;
80163;SDS011;70071;55.130;61.268;2023-10-13T08:46:09;2.33;;;1.30;;
80163;SDS011;70071;55.130;61.268;2023-10-13T08:48:35;2.65;;;1.50;;
80163;SDS011;70071;55.130;61.268;2023-10-13T08:51:02;2.50;;;1.45;;
80163;SDS011;70071;55.130;61.268;2023-10-13T08:53:35;2.65;;;1.30;;
80163;SDS011;70071;55.130;61.268;2023-10-13T08:56:11;5.63;;;1.30;;
80163;SDS011;70071;55.130;61.268;2023-10-13T08:58:58;3.63;;;1.10;;
80163;SDS011;70071;55.130;61.268;2023-10-13T09:01:25;3.40;;;1.40;;
80163;SDS011;70071;55.130;61.268;2023-10-13T09:07:05;3.05;;;1.33;;
80163;SDS011;70071;55.130;61.268;2023-10-13T09:15:00;4.22;;;1.38;;
80163;SDS011;70071;55.130;61.268;2023-10-13T09:17:43;4.93;;;1.50;;
80163;SDS011;70071;55.130;61.268;2023-10-13T09:20:33;4.35;;;1.58;;
80163;SDS011;70071;55.130;61.268;2023-10-13T09:23:12;5.35;;;3.15;;
80163;SDS011;70071;55.130;61.268;2023-10-13T09:25:49;5.35;;;2.13;;
80163;SDS011;70071;55.130;61.268;2023-10-13T09:28:39;3.58;;;2.20;;
80163;SDS011;70071;55.130;61.268;2023-10-13T09:31:05;3.90;;;1.67;;
80163;SDS011;70071;55.130;61.268;2023-10-13T09:33:33;3.95;;;1.88;;
80163;SDS011;70071;55.130;61.268;2023-10-13T09:36:03;5.55;;;2.22;;
80163;SDS011;70071;55.130;61.268;2023-10-13T09:38:32;3.70;;;2.00;;
80163;SDS011;70071;55.130;61.268;2023-10-13T09:40:59;3.50;;;1.73;;
80163;SDS011;70071;55.130;61.268;2023-10-13T09:43:46;3.25;;;2.03;;
80163;SDS011;70071;55.130;61.268;2023-10-13T09:46:18;5.47;;;2.50;;
80163;SDS011;70071;55.130;61.268;2023-10-13T09:48:49;4.97;;;1.95;;
80163;SDS011;70071;55.130;61.268;2023-10-13T09:51:33;5.35;;;2.10;;
80163;SDS011;70071;55.130;61.268;2023-10-13T09:56:50;3.38;;;1.70;;
80163;SDS011;70071;55.130;61.268;2023-10-13T09:59:24;2.42;;;1.42;;
80163;SDS011;70071;55.130;61.268;2023-10-13T10:02:00;4.05;;;2.00;;
80163;SDS011;70071;55.130;61.268;2023-10-13T10:04:34;2.70;;;1.60;;
80163;SDS011;70071;55.130;61.268;2023-10-13T10:07:23;3.33;;;2.20;;
80163;SDS011;70071;55.130;61.268;2023-10-13T10:09:55;5.82;;;2.58;;
80163;SDS011;70071;55.130;61.268;2023-10-13T10:12:26;6.18;;;2.15;;
80163;SDS011;70071;55.130;61.268;2023-10-13T10:15:25;4.03;;;2.05;;
80163;SDS011;70071;55.130;61.268;2023-10-13T10:18:22;6.55;;;2.10;;
80163;SDS011;70071;55.130;61.268;2023-10-13T10:20:51;3.63;;;2.03;;
80163;SDS011;70071;55.130;61.268;2023-10-13T10:23:31;3.75;;;1.90;;
80163;SDS011;70071;55.130;61.268;2023-10-13T10:26:10;3.00;;;2.28;;
80163;SDS011;70071;55.130;61.268;2023-10-13T10:28:37;4.13;;;2.08;;
80163;SDS011;70071;55.130;61.268;2023-10-13T10:31:07;4.25;;;2.38;;
80163;SDS011;70071;55.130;61.268;2023-10-13T10:33:45;3.35;;;1.92;;
80163;SDS011;70071;55.130;61.268;2023-10-13T10:38:57;2.85;;;2.10;;
80163;SDS011;70071;55.130;61.268;2023-10-13T10:41:30;2.83;;;1.88;;
80163;SDS011;70071;55.130;61.268;2023-10-13T10:44:14;4.75;;;2.35;;
80163;SDS011;70071;55.130;61.268;2023-10-13T10:46:41;5.15;;;2.28;;
80163;SDS011;70071;55.130;61.268;2023-10-13T10:49:17;4.18;;;2.00;;
80163;SDS011;70071;55.130;61.268;2023-10-13T10:51:55;3.80;;;2.20;;
80163;SDS011;70071;55.130;61.268;2023-10-13T10:54:26;3.55;;;2.17;;
80163;SDS011;70071;55.130;61.268;2023-10-13T10:56:57;4.22;;;1.95;;
80163;SDS011;70071;55.130;61.268;2023-10-13T10:59:43;5.10;;;2.30;;
80163;SDS011;70071;55.130;61.268;2023-10-13T11:02:10;2.80;;;2.20;;
80163;SDS011;70071;55.130;61.268;2023-10-13T11:04:41;3.42;;;1.67;;
80163;SDS011;70071;55.130;61.268;2023-10-13T11:07:22;4.00;;;2.40;;
80163;SDS011;70071;55.130;61.268;2023-10-13T11:12:18;3.55;;;2.00;;
80163;SDS011;70071;55.130;61.268;2023-10-13T11:15:02;4.28;;;1.60;;
80163;SDS011;70071;55.130;61.268;2023-10-13T11:18:01;3.20;;;1.65;;
80163;SDS011;70071;55.130;61.268;2023-10-13T11:20:30;2.30;;;1.90;;
80163;SDS011;70071;55.130;61.268;2023-10-13T11:23:00;3.40;;;1.90;;
80163;SDS011;70071;55.130;61.268;2023-10-13T11:25:30;4.57;;;2.28;;
80163;SDS011;70071;55.130;61.268;2023-10-13T11:28:15;8.18;;;5.25;;
80163;SDS011;70071;55.130;61.268;2023-10-13T11:30:53;3.78;;;2.40;;
80163;SDS011;70071;55.130;61.268;2023-10-13T11:33:24;6.15;;;2.33;;
80163;SDS011;70071;55.130;61.268;2023-10-13T11:35:57;4.20;;;1.88;;
80163;SDS011;70071;55.130;61.268;2023-10-13T11:38:40;3.92;;;2.22;;
80163;SDS011;70071;55.130;61.268;2023-10-13T11:41:06;3.50;;;2.28;;
80163;SDS011;70071;55.130;61.268;2023-10-13T11:46:22;4.50;;;2.60;;
80163;SDS011;70071;55.130;61.268;2023-10-13T11:49:03;4.30;;;2.20;;
80163;SDS011;70071;55.130;61.268;2023-10-13T11:51:39;3.70;;;2.10;;
80163;SDS011;70071;55.130;61.268;2023-10-13T11:54:15;3.00;;;1.95;;
80163;SDS011;70071;55.130;61.268;2023-10-13T11:56:48;2.58;;;1.80;;
80163;SDS011;70071;55.130;61.268;2023-10-13T11:59:14;2.90;;;1.45;;
80163;SDS011;70071;55.130;61.268;2023-10-13T12:04:31;4.22;;;2.00;;
80163;SDS011;70071;55.130;61.268;2023-10-13T12:06:59;3.72;;;2.17;;
80163;SDS011;70071;55.130;61.268;2023-10-13T12:09:40;4.63;;;1.65;;
80163;SDS011;70071;55.130;61.268;2023-10-13T12:12:17;3.30;;;1.90;;
80163;SDS011;70071;55.130;61.268;2023-10-13T12:14:43;3.22;;;1.75;;
80163;SDS011;70071;55.130;61.268;2023-10-13T12:17:21;3.00;;;1.80;;
80163;SDS011;70071;55.130;61.268;2023-10-13T12:19:54;2.90;;;1.65;;
80163;SDS011;70071;55.130;61.268;2023-10-13T12:22:20;4.45;;;1.90;;
80163;SDS011;70071;55.130;61.268;2023-10-13T12:25:04;5.10;;;1.92;;
80163;SDS011;70071;55.130;61.268;2023-10-13T12:27:45;5.03;;;1.95;;
80163;SDS011;70071;55.130;61.268;2023-10-13T12:30:14;3.88;;;2.47;;
80163;SDS011;70071;55.130;61.268;2023-10-13T12:32:48;3.47;;;1.80;;
80163;SDS011;70071;55.130;61.268;2023-10-13T12:35:31;4.07;;;2.17;;
80163;SDS011;70071;55.130;61.268;2023-10-13T12:38:02;5.70;;;2.33;;
80163;SDS011;70071;55.130;61.268;2023-10-13T12:40:41;3.47;;;2.20;;
80163;SDS011;70071;55.130;61.268;2023-10-13T12:43:25;3.55;;;2.33;;
80163;SDS011;70071;55.130;61.268;2023-10-13T12:46:10;3.58;;;1.92;;
80163;SDS011;70071;55.130;61.268;2023-10-13T12:48:54;1.90;;;1.65;;
80163;SDS011;70071;55.130;61.268;2023-10-13T12:51:21;3.58;;;2.15;;
80163;SDS011;70071;55.130;61.268;2023-10-13T12:58:41;3.00;;;1.75;;
80163;SDS011;70071;55.130;61.268;2023-10-13T13:01:07;3.25;;;1.88;;
80163;SDS011;70071;55.130;61.268;2023-10-13T13:03:34;4.47;;;2.30;;
80163;SDS011;70071;55.130;61.268;2023-10-13T13:06:00;2.78;;;2.08;;
80163;SDS011;70071;55.130;61.268;2023-10-13T13:08:33;3.42;;;1.58;;
80163;SDS011;70071;55.130;61.268;2023-10-13T13:11:09;3.10;;;2.10;;
80163;SDS011;70071;55.130;61.268;2023-10-13T13:13:36;2.92;;;1.80;;
80163;SDS011;70071;55.130;61.268;2023-10-13T13:16:02;3.22;;;2.05;;
80163;SDS011;70071;55.130;61.268;2023-10-13T13:18:33;3.80;;;2.33;;
80163;SDS011;70071;55.130;61.268;2023-10-13T13:23:27;4.57;;;2.22;;
80163;SDS011;70071;55.130;61.268;2023-10-13T13:25:53;3.38;;;2.38;;
80163;SDS011;70071;55.130;61.268;2023-10-13T13:28:22;3.67;;;2.38;;
80163;SDS011;70071;55.130;61.268;2023-10-13T13:30:50;3.80;;;2.20;;
80163;SDS011;70071;55.130;61.268;2023-10-13T13:33:16;3.67;;;2.60;;
80163;SDS011;70071;55.130;61.268;2023-10-13T13:35:48;4.63;;;2.30;;
80163;SDS011;70071;55.130;61.268;2023-10-13T13:38:14;3.55;;;1.90;;
80163;SDS011;70071;55.130;61.268;2023-10-13T13:40:53;4.30;;;2.28;;
80163;SDS011;70071;55.130;61.268;2023-10-13T13:43:22;3.60;;;2.17;;
80163;SDS011;70071;55.130;61.268;2023-10-13T13:46:06;3.55;;;2.33;;
80163;SDS011;70071;55.130;61.268;2023-10-13T13:48:35;4.47;;;2.40;;
80163;SDS011;70071;55.130;61.268;2023-10-13T13:51:03;3.95;;;1.63;;
80163;SDS011;70071;55.130;61.268;2023-10-13T13:53:31;3.85;;;2.20;;
80163;SDS011;70071;55.130;61.268;2023-10-13T13:56:01;2.80;;;2.05;;
80163;SDS011;70071;55.130;61.268;2023-10-13T13:58:28;3.38;;;1.88;;
80163;SDS011;70071;55.130;61.268;2023-10-13T14:01:04;4.28;;;2.33;;
80163;SDS011;70071;55.130;61.268;2023-10-13T14:03:41;4.30;;;2.42;;
80163;SDS011;70071;55.130;61.268;2023-10-13T14:08:44;3.85;;;2.20;;
80163;SDS011;70071;55.130;61.268;2023-10-13T14:11:17;4.03;;;1.92;;
80163;SDS011;70071;55.130;61.268;2023-10-13T14:14:02;3.50;;;1.90;;
80163;SDS011;70071;55.130;61.268;2023-10-13T14:16:30;5.38;;;2.40;;
80163;SDS011;70071;55.130;61.268;2023-10-13T14:18:59;5.55;;;2.20;;
80163;SDS011;70071;55.130;61.268;2023-10-13T14:21:32;3.72;;;2.15;;
80163;SDS011;70071;55.130;61.268;2023-10-13T14:24:00;5.32;;;2.42;;
80163;SDS011;70071;55.130;61.268;2023-10-13T14:26:27;3.90;;;2.38;;
80163;SDS011;70071;55.130;61.268;2023-10-13T14:28:53;5.30;;;2.45;;
80163;SDS011;70071;55.130;61.268;2023-10-13T14:31:40;4.43;;;2.40;;
80163;SDS011;70071;55.130;61.268;2023-10-13T14:34:07;4.80;;;2.60;;
80163;SDS011;70071;55.130;61.268;2023-10-13T14:36:34;4.07;;;2.20;;
80163;SDS011;70071;55.130;61.268;2023-10-13T14:39:02;3.70;;;2.20;;
80163;SDS011;70071;55.130;61.268;2023-10-13T14:41:38;3.25;;;1.75;;
80163;SDS011;70071;55.130;61.268;2023-10-13T14:44:06;7.05;;;2.63;;
80163;SDS011;70071;55.130;61.268;2023-10-13T14:46:33;4.25;;;2.40;;
80163;SDS011;70071;55.130;61.268;2023-10-13T14:49:05;4.45;;;2.40;;
80163;SDS011;70071;55.130;61.268;2023-10-13T14:51:31;4.43;;;2.78;;
80163;SDS011;70071;55.130;61.268;2023-10-13T14:53:58;4.32;;;2.70;;
80163;SDS011;70071;55.130;61.268;2023-10-13T14:56:29;6.15;;;4.13;;
80163;SDS011;70071;55.130;61.268;2023-10-13T14:58:56;3.10;;;2.13;;
80163;SDS011;70071;55.130;61.268;2023-10-13T15:01:22;3.75;;;2.25;;
80163;SDS011;70071;55.130;61.268;2023-10-13T15:03:52;3.22;;;2.20;;
80163;SDS011;70071;55.130;61.268;2023-10-13T15:06:23;3.38;;;1.85;;
80163;SDS011;70071;55.130;61.268;2023-10-13T15:08:51;3.42;;;2.40;;
80163;SDS011;70071;55.130;61.268;2023-10-13T15:11:23;4.28;;;2.22;;
80163;SDS011;70071;55.130;61.268;2023-10-13T15:13:52;3.67;;;1.98;;
80163;SDS011;70071;55.130;61.268;2023-10-13T15:16:20;3.75;;;2.28;;
80163;SDS011;70071;55.130;61.268;2023-10-13T15:18:47;4.75;;;2.20;;
80163;SDS011;70071;55.130;61.268;2023-10-13T15:21:24;5.32;;;2.10;;
80163;SDS011;70071;55.130;61.268;2023-10-13T15:24:02;3.38;;;1.92;;
80163;SDS011;70071;55.130;61.268;2023-10-13T15:26:42;3.85;;;1.88;;
80163;SDS011;70071;55.130;61.268;2023-10-13T15:29:15;3.67;;;1.80;;
80163;SDS011;70071;55.130;61.268;2023-10-13T15:31:45;3.28;;;1.92;;
80163;SDS011;70071;55.130;61.268;2023-10-13T15:34:24;3.65;;;2.10;;
80163;SDS011;70071;55.130;61.268;2023-10-13T15:36:52;6.53;;;1.90;;
80163;SDS011;70071;55.130;61.268;2023-10-13T15:39:20;2.85;;;2.10;;
80163;SDS011;70071;55.130;61.268;2023-10-13T15:44:24;2.78;;;2.08;;
80163;SDS011;70071;55.130;61.268;2023-10-13T15:46:57;2.67;;;1.70;;
80163;SDS011;70071;55.130;61.268;2023-10-13T15:49:31;2.35;;;1.85;;
80163;SDS011;70071;55.130;61.268;2023-10-13T15:52:02;3.08;;;1.80;;
80163;SDS011;70071;55.130;61.268;2023-10-13T15:54:29;2.70;;;1.90;;
80163;SDS011;70071;55.130;61.268;2023-10-13T15:56:56;2.60;;;1.60;;
80163;SDS011;70071;55.130;61.268;2023-10-13T15:59:21;2.05;;;1.35;;
80163;SDS011;70071;55.130;61.268;2023-10-13T16:01:48;3.00;;;1.50;;
80163;SDS011;70071;55.130;61.268;2023-10-13T16:04:21;2.30;;;1.40;;
80163;SDS011;70071;55.130;61.268;2023-10-13T16:06:48;3.35;;;1.42;;
80163;SDS011;70071;55.130;61.268;2023-10-13T16:09:17;1.85;;;1.30;;
80163;SDS011;70071;55.130;61.268;2023-10-13T16:11:51;3.22;;;1.73;;
80163;SDS011;70071;55.130;61.268;2023-10-13T16:14:19;3.00;;;1.58;;
80163;SDS011;70071;55.130;61.268;2023-10-13T16:16:50;2.05;;;1.50;;
80163;SDS011;70071;55.130;61.268;2023-10-13T16:19:21;3.08;;;1.80;;
80163;SDS011;70071;55.130;61.268;2023-10-13T16:22:12;2.50;;;1.20;;
80163;SDS011;70071;55.130;61.268;2023-10-13T16:24:43;2.60;;;1.80;;
80163;SDS011;70071;55.130;61.268;2023-10-13T16:27:14;3.35;;;1.70;;
80163;SDS011;70071;55.130;61.268;2023-10-13T16:29:40;2.05;;;1.23;;
80163;SDS011;70071;55.130;61.268;2023-10-13T16:32:08;3.58;;;1.60;;
80163;SDS011;70071;55.130;61.268;2023-10-13T16:34:34;3.38;;;1.80;;
80163;SDS011;70071;55.130;61.268;2023-10-13T16:37:09;2.33;;;1.40;;
80163;SDS011;70071;55.130;61.268;2023-10-13T16:42:53;1.83;;;1.17;;
80163;SDS011;70071;55.130;61.268;2023-10-13T16:45:22;2.13;;;1.40;;
80163;SDS011;70071;55.130;61.268;2023-10-13T16:48:23;2.25;;;1.73;;
80163;SDS011;70071;55.130;61.268;2023-10-13T16:50:58;2.72;;;1.58;;
80163;SDS011;70071;55.130;61.268;2023-10-13T16:53:25;2.65;;;1.48;;
80163;SDS011;70071;55.130;61.268;2023-10-13T16:55:52;2.33;;;1.48;;
80163;SDS011;70071;55.130;61.268;2023-10-13T16:58:20;2.42;;;1.80;;
80163;SDS011;70071;55.130;61.268;2023-10-13T17:00:47;3.42;;;1.70;;
80163;SDS011;70071;55.130;61.268;2023-10-13T17:03:21;3.45;;;1.80;;